HVN115 VVTS-WSSS
Flight info
| Callsign | HVN115 |
|---|---|
| Flight time | N/A |
| Altitude | 34000 |
| Route | NIXI5A NIXIV L643 CN L642 ESPOB/N0441F340 Q801 ESBUM Q802 ELALO ELALO1A |
| Aircraft | A20N/M-SDE2E3FGHIRWXY/LB1 |
Departure
| Time | 2026-05-05 07:55 |
|---|---|
| Airport | Tan Son Nhat International Airport (VVTS) |
Arrival
| Time | N/A |
|---|---|
| Airport | Singapore Changi Airport (WSSS) |
| Time | Latitude | Longitude | Altitude | Speed | Heading |
|---|---|---|---|---|---|
| 2026-05-05 07:31 | 10.81601 | 106.66154 | 36 ft | 0 kts | 95° |
| 2026-05-05 07:43 | 10.81601 | 106.66153 | 36 ft | 2 kts | 95° |
| 2026-05-05 07:43 | 10.81602 | 106.66136 | 35 ft | 2 kts | 93° |
| 2026-05-05 07:43 | 10.81603 | 106.66120 | 33 ft | 2 kts | 91° |
| 2026-05-05 07:44 | 10.81602 | 106.66103 | 33 ft | 2 kts | 87° |
| 2026-05-05 07:44 | 10.81601 | 106.66086 | 33 ft | 2 kts | 82° |
| 2026-05-05 07:44 | 10.81598 | 106.66070 | 35 ft | 2 kts | 73° |
| 2026-05-05 07:44 | 10.81592 | 106.66054 | 34 ft | 2 kts | 53° |
| 2026-05-05 07:45 | 10.81580 | 106.66043 | 35 ft | 2 kts | 18° |
| 2026-05-05 07:45 | 10.81569 | 106.66040 | 32 ft | 1 kts | 5° |
| 2026-05-05 07:45 | 10.81568 | 106.66040 | 33 ft | 0 kts | 5° |
| 2026-05-05 07:47 | 10.81572 | 106.66041 | 32 ft | 2 kts | 5° |
| 2026-05-05 07:47 | 10.81593 | 106.66043 | 36 ft | 4 kts | 9° |
| 2026-05-05 07:47 | 10.81634 | 106.66049 | 36 ft | 7 kts | 6° |
| 2026-05-05 07:47 | 10.81696 | 106.66055 | 36 ft | 11 kts | 4° |
| 2026-05-05 07:48 | 10.81750 | 106.66060 | 36 ft | 13 kts | 6° |
| 2026-05-05 07:48 | 10.81870 | 106.66101 | 36 ft | 16 kts | 62° |
| 2026-05-05 07:48 | 10.81898 | 106.66172 | 36 ft | 17 kts | 68° |
| 2026-05-05 07:48 | 10.81943 | 106.66291 | 37 ft | 19 kts | 68° |
| 2026-05-05 07:49 | 10.81993 | 106.66423 | 37 ft | 21 kts | 69° |
| 2026-05-05 07:49 | 10.82048 | 106.66570 | 36 ft | 23 kts | 67° |
| 2026-05-05 07:49 | 10.82106 | 106.66722 | 36 ft | 19 kts | 68° |
| 2026-05-05 07:49 | 10.82156 | 106.66854 | 34 ft | 20 kts | 70° |
| 2026-05-05 07:50 | 10.82188 | 106.66941 | 35 ft | 14 kts | 68° |
| 2026-05-05 07:50 | 10.82250 | 106.67009 | 37 ft | 14 kts | 347° |
| 2026-05-05 07:50 | 10.82285 | 106.66995 | 37 ft | 0 kts | 338° |
| 2026-05-05 07:52 | 10.82291 | 106.66992 | 37 ft | 2 kts | 338° |
| 2026-05-05 07:52 | 10.82311 | 106.66980 | 38 ft | 5 kts | 320° |
| 2026-05-05 07:52 | 10.82342 | 106.66953 | 38 ft | 7 kts | 331° |
| 2026-05-05 07:52 | 10.82360 | 106.66923 | 38 ft | 5 kts | 262° |
| 2026-05-05 07:53 | 10.82349 | 106.66888 | 37 ft | 0 kts | 250° |
| 2026-05-05 07:54 | 10.82349 | 106.66886 | 35 ft | 1 kts | 250° |
| 2026-05-05 07:54 | 10.82326 | 106.66826 | 37 ft | 33 kts | 248° |
| 2026-05-05 07:54 | 10.82155 | 106.66382 | 36 ft | 99 kts | 249° |
| 2026-05-05 07:54 | 10.81842 | 106.65555 | 35 ft | 149 kts | 249° |
| 2026-05-05 07:55 | 10.81479 | 106.64595 | 332 ft | 141 kts | 245° |
| 2026-05-05 07:55 | 10.81108 | 106.63603 | 718 ft | 162 kts | 245° |
| 2026-05-05 07:55 | 10.80667 | 106.62470 | 1204 ft | 175 kts | 245° |
| 2026-05-05 07:55 | 10.80224 | 106.61318 | 1950 ft | 175 kts | 247° |
| 2026-05-05 07:56 | 10.79759 | 106.60095 | 2392 ft | 195 kts | 247° |
| 2026-05-05 07:56 | 10.79241 | 106.58748 | 2841 ft | 215 kts | 248° |
| 2026-05-05 07:56 | 10.78671 | 106.57257 | 3210 ft | 238 kts | 248° |
| 2026-05-05 07:56 | 10.77970 | 106.55642 | 3643 ft | 261 kts | 236° |
| 2026-05-05 07:57 | 10.76618 | 106.54344 | 4156 ft | 276 kts | 206° |
| 2026-05-05 07:57 | 10.74768 | 106.53828 | 4910 ft | 278 kts | 178° |
| 2026-05-05 07:57 | 10.72855 | 106.54042 | 5800 ft | 277 kts | 168° |
| 2026-05-05 07:57 | 10.70945 | 106.54384 | 6634 ft | 280 kts | 167° |
| 2026-05-05 07:58 | 10.69020 | 106.54734 | 7442 ft | 283 kts | 167° |
| 2026-05-05 07:58 | 10.67096 | 106.55066 | 8231 ft | 285 kts | 168° |
| 2026-05-05 07:58 | 10.65115 | 106.55390 | 8748 ft | 290 kts | 168° |
| 2026-05-05 07:58 | 10.63112 | 106.55707 | 8945 ft | 292 kts | 168° |
| 2026-05-05 07:59 | 10.61103 | 106.56018 | 9004 ft | 291 kts | 168° |
| 2026-05-05 07:59 | 10.59100 | 106.56328 | 9012 ft | 291 kts | 168° |
| 2026-05-05 07:59 | 10.57095 | 106.56639 | 9016 ft | 292 kts | 168° |
| 2026-05-05 07:59 | 10.55090 | 106.56951 | 9017 ft | 291 kts | 168° |
| 2026-05-05 08:00 | 10.53087 | 106.57263 | 9022 ft | 291 kts | 168° |
| 2026-05-05 08:00 | 10.51082 | 106.57577 | 9019 ft | 292 kts | 168° |
| 2026-05-05 08:00 | 10.49073 | 106.57891 | 9021 ft | 292 kts | 168° |
| 2026-05-05 08:00 | 10.47065 | 106.58204 | 9072 ft | 293 kts | 168° |
| 2026-05-05 08:01 | 10.45067 | 106.58517 | 9498 ft | 296 kts | 168° |
| 2026-05-05 08:01 | 10.43029 | 106.58836 | 10283 ft | 297 kts | 168° |
| 2026-05-05 08:01 | 10.40942 | 106.59166 | 10747 ft | 312 kts | 168° |
| 2026-05-05 08:01 | 10.38729 | 106.59513 | 11011 ft | 331 kts | 169° |
| 2026-05-05 08:02 | 10.36394 | 106.59877 | 11279 ft | 347 kts | 169° |
| 2026-05-05 08:02 | 10.33987 | 106.60249 | 11542 ft | 351 kts | 169° |
| 2026-05-05 08:02 | 10.31558 | 106.60622 | 12041 ft | 355 kts | 169° |
| 2026-05-05 08:02 | 10.29114 | 106.60998 | 12796 ft | 356 kts | 169° |
| 2026-05-05 08:03 | 10.26650 | 106.61378 | 13433 ft | 361 kts | 169° |
| 2026-05-05 08:03 | 10.24157 | 106.61764 | 13840 ft | 364 kts | 169° |
| 2026-05-05 08:03 | 10.21650 | 106.62161 | 13986 ft | 364 kts | 167° |
| 2026-05-05 08:03 | 10.19192 | 106.62781 | 14101 ft | 363 kts | 162° |
| 2026-05-05 08:04 | 10.16787 | 106.63469 | 14252 ft | 366 kts | 162° |
| 2026-05-05 08:04 | 10.14289 | 106.64023 | 14862 ft | 368 kts | 170° |
| 2026-05-05 08:04 | 10.11723 | 106.64238 | 15472 ft | 372 kts | 178° |
| 2026-05-05 08:04 | 10.09118 | 106.64205 | 16023 ft | 376 kts | 179° |
| 2026-05-05 08:05 | 10.06493 | 106.64168 | 16579 ft | 379 kts | 179° |
| 2026-05-05 08:05 | 10.03845 | 106.64136 | 17120 ft | 382 kts | 179° |
| 2026-05-05 08:05 | 10.01177 | 106.64106 | 17648 ft | 385 kts | 179° |
| 2026-05-05 08:05 | 9.98482 | 106.64075 | 18176 ft | 388 kts | 179° |
| 2026-05-05 08:06 | 9.95771 | 106.64042 | 18626 ft | 391 kts | 179° |
| 2026-05-05 08:06 | 9.93035 | 106.64011 | 19067 ft | 394 kts | 179° |
| 2026-05-05 08:06 | 9.90279 | 106.63980 | 19522 ft | 397 kts | 179° |
| 2026-05-05 08:06 | 9.87501 | 106.63948 | 19959 ft | 400 kts | 179° |
| 2026-05-05 08:07 | 9.84711 | 106.63916 | 20399 ft | 403 kts | 179° |
| 2026-05-05 08:07 | 9.81895 | 106.63884 | 20819 ft | 406 kts | 180° |
| 2026-05-05 08:07 | 9.79057 | 106.63851 | 21253 ft | 409 kts | 180° |
| 2026-05-05 08:07 | 9.76240 | 106.63818 | 21666 ft | 412 kts | 180° |
| 2026-05-05 08:08 | 9.73360 | 106.63785 | 22080 ft | 415 kts | 180° |
| 2026-05-05 08:08 | 9.70460 | 106.63752 | 22488 ft | 418 kts | 180° |
| 2026-05-05 08:08 | 9.67546 | 106.63718 | 22887 ft | 421 kts | 180° |
| 2026-05-05 08:08 | 9.64611 | 106.63684 | 23285 ft | 423 kts | 180° |
| 2026-05-05 08:09 | 9.61655 | 106.63650 | 23632 ft | 426 kts | 180° |
| 2026-05-05 08:09 | 9.58680 | 106.63615 | 23995 ft | 428 kts | 180° |
| 2026-05-05 08:09 | 9.55698 | 106.63581 | 24328 ft | 430 kts | 180° |
| 2026-05-05 08:09 | 9.52701 | 106.63546 | 24651 ft | 432 kts | 180° |
| 2026-05-05 08:10 | 9.49688 | 106.63512 | 24976 ft | 434 kts | 180° |
| 2026-05-05 08:10 | 9.46662 | 106.63477 | 25296 ft | 436 kts | 180° |
| 2026-05-05 08:10 | 9.43622 | 106.63440 | 25607 ft | 438 kts | 181° |
| 2026-05-05 08:10 | 9.40572 | 106.63183 | 25911 ft | 441 kts | 188° |
| 2026-05-05 08:11 | 9.37562 | 106.62534 | 26212 ft | 443 kts | 195° |
| 2026-05-05 08:11 | 9.34640 | 106.61510 | 26501 ft | 445 kts | 202° |
| 2026-05-05 08:11 | 9.31799 | 106.60341 | 26782 ft | 447 kts | 201° |
| 2026-05-05 08:11 | 9.28905 | 106.59163 | 27063 ft | 449 kts | 201° |
| 2026-05-05 08:12 | 9.25990 | 106.57980 | 27344 ft | 451 kts | 201° |
| 2026-05-05 08:12 | 9.23067 | 106.56796 | 27622 ft | 453 kts | 201° |
| 2026-05-05 08:12 | 9.20132 | 106.55607 | 27886 ft | 455 kts | 201° |
| 2026-05-05 08:12 | 9.17185 | 106.54413 | 28147 ft | 457 kts | 201° |
| 2026-05-05 08:13 | 9.14227 | 106.53214 | 28398 ft | 459 kts | 201° |
| 2026-05-05 08:13 | 9.11245 | 106.52006 | 28654 ft | 461 kts | 201° |
| 2026-05-05 08:13 | 9.08255 | 106.50794 | 28894 ft | 463 kts | 201° |
| 2026-05-05 08:13 | 9.05258 | 106.49580 | 29117 ft | 465 kts | 201° |
| 2026-05-05 08:14 | 9.02287 | 106.48377 | 29357 ft | 467 kts | 201° |
| 2026-05-05 08:14 | 8.99271 | 106.47156 | 29592 ft | 468 kts | 201° |
| 2026-05-05 08:14 | 8.96234 | 106.45926 | 29822 ft | 470 kts | 201° |
| 2026-05-05 08:14 | 8.93189 | 106.44693 | 30028 ft | 472 kts | 201° |
| 2026-05-05 08:15 | 8.90133 | 106.43457 | 30242 ft | 474 kts | 201° |
| 2026-05-05 08:15 | 8.87067 | 106.42215 | 30449 ft | 475 kts | 201° |
| 2026-05-05 08:15 | 8.83996 | 106.40973 | 30685 ft | 476 kts | 201° |
| 2026-05-05 08:15 | 8.80913 | 106.39726 | 30915 ft | 477 kts | 201° |
| 2026-05-05 08:16 | 8.77814 | 106.38472 | 31203 ft | 477 kts | 201° |
| 2026-05-05 08:16 | 8.74733 | 106.37225 | 31497 ft | 476 kts | 201° |
| 2026-05-05 08:16 | 8.71661 | 106.35983 | 31803 ft | 475 kts | 201° |
| 2026-05-05 08:16 | 8.68592 | 106.34742 | 32087 ft | 475 kts | 201° |
| 2026-05-05 08:17 | 8.65525 | 106.33502 | 32378 ft | 474 kts | 201° |
| 2026-05-05 08:17 | 8.62509 | 106.32283 | 32662 ft | 473 kts | 201° |
| 2026-05-05 08:17 | 8.59452 | 106.31047 | 32920 ft | 473 kts | 200° |
| 2026-05-05 08:17 | 8.56399 | 106.29814 | 33191 ft | 471 kts | 200° |
| 2026-05-05 08:18 | 8.53349 | 106.28582 | 33477 ft | 470 kts | 200° |
| 2026-05-05 08:18 | 8.50311 | 106.27355 | 33738 ft | 470 kts | 200° |
| 2026-05-05 08:18 | 8.44252 | 106.24909 | 33833 ft | 468 kts | 200° |
| 2026-05-05 08:19 | 8.38238 | 106.22483 | 33833 ft | 468 kts | 200° |
| 2026-05-05 08:19 | 8.32184 | 106.20041 | 33835 ft | 468 kts | 200° |
| 2026-05-05 08:20 | 8.26114 | 106.17593 | 33835 ft | 469 kts | 200° |
| 2026-05-05 08:20 | 8.20057 | 106.15152 | 33838 ft | 469 kts | 200° |
| 2026-05-05 08:21 | 8.13996 | 106.12709 | 33833 ft | 469 kts | 200° |
| 2026-05-05 08:21 | 8.07960 | 106.10278 | 33827 ft | 469 kts | 200° |
| 2026-05-05 08:22 | 8.01886 | 106.07832 | 33830 ft | 469 kts | 200° |
| 2026-05-05 08:22 | 7.95850 | 106.05403 | 33829 ft | 469 kts | 201° |
| 2026-05-05 08:23 | 7.89777 | 106.02959 | 33828 ft | 469 kts | 201° |
| 2026-05-05 08:23 | 7.83702 | 106.00515 | 33830 ft | 469 kts | 201° |
| 2026-05-05 08:24 | 7.77636 | 105.98076 | 33827 ft | 469 kts | 201° |
| 2026-05-05 08:24 | 7.71569 | 105.95638 | 33831 ft | 469 kts | 201° |
| 2026-05-05 08:25 | 7.65507 | 105.93201 | 33828 ft | 468 kts | 201° |
| 2026-05-05 08:25 | 7.59495 | 105.90786 | 33830 ft | 468 kts | 201° |
| 2026-05-05 08:26 | 7.53443 | 105.88354 | 33826 ft | 467 kts | 201° |
| 2026-05-05 08:26 | 7.47406 | 105.85930 | 33825 ft | 466 kts | 201° |
| 2026-05-05 08:27 | 7.41388 | 105.83514 | 33823 ft | 465 kts | 201° |
| 2026-05-05 08:27 | 7.35370 | 105.81099 | 33829 ft | 465 kts | 201° |
| 2026-05-05 08:28 | 7.29351 | 105.78684 | 33831 ft | 465 kts | 201° |
| 2026-05-05 08:28 | 7.23341 | 105.76273 | 33829 ft | 465 kts | 201° |
| 2026-05-05 08:29 | 7.17313 | 105.73856 | 33829 ft | 465 kts | 201° |
| 2026-05-05 08:30 | 7.08287 | 105.70238 | 33829 ft | 465 kts | 201° |
| 2026-05-05 08:30 | 7.02308 | 105.67842 | 33829 ft | 465 kts | 201° |
| 2026-05-05 08:31 | 6.96279 | 105.65427 | 33832 ft | 466 kts | 201° |
| 2026-05-05 08:31 | 6.90245 | 105.63010 | 33827 ft | 466 kts | 201° |
| 2026-05-05 08:32 | 6.84214 | 105.60595 | 33828 ft | 466 kts | 201° |
| 2026-05-05 08:32 | 6.78179 | 105.58180 | 33826 ft | 466 kts | 201° |
| 2026-05-05 08:33 | 6.74189 | 105.56583 | 33826 ft | 466 kts | 201° |
| 2026-05-05 08:33 | 6.67990 | 105.54092 | 33826 ft | 465 kts | 201° |
| 2026-05-05 08:34 | 6.61970 | 105.51676 | 33827 ft | 465 kts | 201° |
| 2026-05-05 08:34 | 6.55956 | 105.49271 | 33828 ft | 465 kts | 201° |
| 2026-05-05 08:35 | 6.49946 | 105.46870 | 33827 ft | 464 kts | 201° |
| 2026-05-05 08:35 | 6.43931 | 105.44468 | 33823 ft | 465 kts | 201° |
| 2026-05-05 08:36 | 6.38932 | 105.42473 | 33824 ft | 464 kts | 201° |
| 2026-05-05 08:36 | 6.31943 | 105.39682 | 33825 ft | 464 kts | 201° |
| 2026-05-05 08:37 | 6.25932 | 105.37282 | 33824 ft | 464 kts | 201° |
| 2026-05-05 08:37 | 6.20945 | 105.35292 | 33823 ft | 464 kts | 201° |
| 2026-05-05 08:38 | 6.14942 | 105.32896 | 33826 ft | 464 kts | 201° |
| 2026-05-05 08:38 | 6.08941 | 105.30502 | 33823 ft | 464 kts | 201° |
| 2026-05-05 08:39 | 6.02938 | 105.28108 | 33820 ft | 463 kts | 201° |
| 2026-05-05 08:39 | 5.96947 | 105.25719 | 33824 ft | 463 kts | 201° |
| 2026-05-05 08:40 | 5.90952 | 105.23329 | 33822 ft | 463 kts | 201° |
| 2026-05-05 08:40 | 5.84999 | 105.20956 | 33824 ft | 463 kts | 201° |
| 2026-05-05 08:41 | 5.79011 | 105.18570 | 33825 ft | 463 kts | 201° |
| 2026-05-05 08:41 | 5.73026 | 105.16185 | 33822 ft | 462 kts | 201° |
| 2026-05-05 08:42 | 5.67047 | 105.13802 | 33822 ft | 463 kts | 201° |
| 2026-05-05 08:42 | 5.61061 | 105.11418 | 33826 ft | 463 kts | 201° |
| 2026-05-05 08:43 | 5.55070 | 105.09033 | 33822 ft | 463 kts | 201° |
| 2026-05-05 08:43 | 5.49082 | 105.06649 | 33827 ft | 462 kts | 201° |
| 2026-05-05 08:44 | 5.43095 | 105.04266 | 33826 ft | 463 kts | 201° |
| 2026-05-05 08:44 | 5.37151 | 105.01900 | 33821 ft | 463 kts | 201° |
| 2026-05-05 08:45 | 5.31161 | 104.99516 | 33822 ft | 463 kts | 201° |
| 2026-05-05 08:45 | 5.25172 | 104.97134 | 33823 ft | 463 kts | 201° |
| 2026-05-05 08:46 | 5.19184 | 104.94752 | 33825 ft | 463 kts | 201° |
| 2026-05-05 08:46 | 5.13195 | 104.92371 | 33824 ft | 463 kts | 201° |
| 2026-05-05 08:47 | 5.07210 | 104.89991 | 33822 ft | 463 kts | 201° |
| 2026-05-05 08:47 | 5.01217 | 104.87609 | 33822 ft | 463 kts | 201° |
| 2026-05-05 08:48 | 4.95222 | 104.85226 | 33823 ft | 463 kts | 201° |
| 2026-05-05 08:48 | 4.89232 | 104.82846 | 33820 ft | 463 kts | 201° |
| 2026-05-05 08:49 | 4.83280 | 104.80482 | 33820 ft | 463 kts | 201° |
| 2026-05-05 08:49 | 4.77239 | 104.78082 | 33819 ft | 463 kts | 201° |
| 2026-05-05 08:50 | 4.71238 | 104.75699 | 33821 ft | 464 kts | 201° |
| 2026-05-05 08:50 | 4.65275 | 104.73332 | 33820 ft | 464 kts | 201° |
| 2026-05-05 08:51 | 4.59268 | 104.70947 | 33820 ft | 464 kts | 201° |
| 2026-05-05 08:51 | 4.53265 | 104.68564 | 33821 ft | 464 kts | 201° |
| 2026-05-05 08:52 | 4.47269 | 104.66185 | 33821 ft | 464 kts | 201° |
| 2026-05-05 08:52 | 4.41266 | 104.63803 | 33820 ft | 464 kts | 201° |
| 2026-05-05 08:53 | 4.35265 | 104.61422 | 33820 ft | 464 kts | 201° |
| 2026-05-05 08:53 | 4.29260 | 104.59040 | 33815 ft | 464 kts | 201° |
| 2026-05-05 08:54 | 4.23187 | 104.56864 | 33816 ft | 463 kts | 192° |
| 2026-05-05 08:54 | 4.16837 | 104.56244 | 33816 ft | 462 kts | 176° |
| 2026-05-05 08:55 | 4.10432 | 104.56856 | 33814 ft | 462 kts | 174° |
| 2026-05-05 08:55 | 4.04038 | 104.57481 | 33820 ft | 462 kts | 174° |
| 2026-05-05 08:56 | 3.97645 | 104.58105 | 33817 ft | 461 kts | 174° |
| 2026-05-05 08:56 | 3.91250 | 104.58730 | 33817 ft | 461 kts | 174° |
| 2026-05-05 08:57 | 3.84899 | 104.59352 | 33815 ft | 461 kts | 174° |
| 2026-05-05 08:57 | 3.78511 | 104.59977 | 33813 ft | 461 kts | 174° |
| 2026-05-05 08:58 | 3.72125 | 104.60602 | 33813 ft | 461 kts | 174° |
| 2026-05-05 08:58 | 3.65729 | 104.61231 | 33818 ft | 461 kts | 174° |
| 2026-05-05 08:59 | 3.59344 | 104.61858 | 33814 ft | 461 kts | 174° |
| 2026-05-05 08:59 | 3.52964 | 104.62484 | 33816 ft | 461 kts | 174° |
| 2026-05-05 09:00 | 3.46613 | 104.63107 | 33817 ft | 461 kts | 174° |
| 2026-05-05 09:00 | 3.40229 | 104.63734 | 33811 ft | 460 kts | 174° |
| 2026-05-05 09:01 | 3.33842 | 104.64360 | 33730 ft | 461 kts | 174° |
| 2026-05-05 09:01 | 3.30653 | 104.64673 | 33473 ft | 461 kts | 174° |
| 2026-05-05 09:01 | 3.27462 | 104.64986 | 33220 ft | 460 kts | 174° |
| 2026-05-05 09:01 | 3.24265 | 104.65299 | 32984 ft | 461 kts | 174° |
| 2026-05-05 09:02 | 3.21060 | 104.65614 | 32731 ft | 462 kts | 174° |
| 2026-05-05 09:02 | 3.17895 | 104.65924 | 32485 ft | 463 kts | 173° |
| 2026-05-05 09:02 | 3.14687 | 104.66239 | 32251 ft | 463 kts | 173° |
| 2026-05-05 09:02 | 3.11479 | 104.66553 | 32005 ft | 464 kts | 174° |
| 2026-05-05 09:03 | 3.08242 | 104.66583 | 31763 ft | 466 kts | 185° |
| 2026-05-05 09:03 | 3.05059 | 104.65946 | 31529 ft | 469 kts | 197° |
| 2026-05-05 09:03 | 3.02055 | 104.64659 | 31294 ft | 471 kts | 208° |
| 2026-05-05 09:03 | 2.99363 | 104.62774 | 31060 ft | 474 kts | 220° |
| 2026-05-05 09:04 | 2.97035 | 104.60430 | 30833 ft | 476 kts | 226° |
| 2026-05-05 09:04 | 2.94821 | 104.57955 | 30604 ft | 477 kts | 227° |
| 2026-05-05 09:04 | 2.92617 | 104.55477 | 30374 ft | 476 kts | 227° |
| 2026-05-05 09:04 | 2.90393 | 104.53020 | 30154 ft | 475 kts | 226° |
| 2026-05-05 09:05 | 2.88191 | 104.50628 | 29932 ft | 473 kts | 226° |
| 2026-05-05 09:05 | 2.85947 | 104.48215 | 29676 ft | 472 kts | 226° |
| 2026-05-05 09:05 | 2.83708 | 104.45820 | 29417 ft | 470 kts | 226° |
| 2026-05-05 09:05 | 2.81480 | 104.43441 | 29150 ft | 468 kts | 226° |
| 2026-05-05 09:06 | 2.79254 | 104.41064 | 28641 ft | 468 kts | 226° |
| 2026-05-05 09:06 | 2.77029 | 104.38688 | 28044 ft | 466 kts | 226° |
| 2026-05-05 09:06 | 2.74824 | 104.36332 | 27455 ft | 462 kts | 226° |
| 2026-05-05 09:06 | 2.72638 | 104.33997 | 26872 ft | 457 kts | 226° |
| 2026-05-05 09:07 | 2.70468 | 104.31679 | 26282 ft | 453 kts | 226° |
| 2026-05-05 09:07 | 2.68316 | 104.29380 | 25687 ft | 450 kts | 226° |
| 2026-05-05 09:07 | 2.66181 | 104.27099 | 25082 ft | 448 kts | 226° |
| 2026-05-05 09:07 | 2.64091 | 104.24867 | 24507 ft | 445 kts | 226° |
| 2026-05-05 09:08 | 2.61976 | 104.22608 | 23936 ft | 442 kts | 226° |
| 2026-05-05 09:08 | 2.59882 | 104.20371 | 23341 ft | 440 kts | 226° |
| 2026-05-05 09:08 | 2.57798 | 104.18147 | 22763 ft | 436 kts | 226° |
| 2026-05-05 09:08 | 2.55739 | 104.15947 | 22194 ft | 431 kts | 226° |
| 2026-05-05 09:09 | 2.53699 | 104.13772 | 21629 ft | 426 kts | 225° |
| 2026-05-05 09:09 | 2.51428 | 104.11901 | 21054 ft | 420 kts | 210° |
| 2026-05-05 09:09 | 2.48818 | 104.10712 | 20570 ft | 405 kts | 194° |
| 2026-05-05 09:09 | 2.46061 | 104.10310 | 20265 ft | 403 kts | 179° |
| 2026-05-05 09:10 | 2.43241 | 104.10338 | 19909 ft | 405 kts | 177° |
| 2026-05-05 09:10 | 2.40439 | 104.10407 | 19558 ft | 400 kts | 177° |
| 2026-05-05 09:10 | 2.37662 | 104.10460 | 19210 ft | 398 kts | 178° |
| 2026-05-05 09:10 | 2.34899 | 104.10489 | 18855 ft | 396 kts | 178° |
| 2026-05-05 09:11 | 2.32182 | 104.10502 | 18524 ft | 396 kts | 178° |
| 2026-05-05 09:11 | 2.29430 | 104.10505 | 18167 ft | 394 kts | 178° |
| 2026-05-05 09:11 | 2.26711 | 104.10505 | 17802 ft | 388 kts | 178° |
| 2026-05-05 09:11 | 2.24023 | 104.10504 | 17460 ft | 385 kts | 178° |
| 2026-05-05 09:12 | 2.21340 | 104.10504 | 17123 ft | 385 kts | 178° |
| 2026-05-05 09:12 | 2.18665 | 104.10504 | 16788 ft | 383 kts | 178° |
| 2026-05-05 09:12 | 2.16005 | 104.10504 | 16446 ft | 381 kts | 179° |
| 2026-05-05 09:12 | 2.13360 | 104.10504 | 16120 ft | 379 kts | 179° |
| 2026-05-05 09:13 | 2.10731 | 104.10504 | 15791 ft | 377 kts | 179° |
| 2026-05-05 09:13 | 2.08101 | 104.10504 | 15449 ft | 377 kts | 179° |
| 2026-05-05 09:13 | 2.05494 | 104.10504 | 15130 ft | 373 kts | 179° |
| 2026-05-05 09:13 | 2.02907 | 104.10503 | 14802 ft | 371 kts | 179° |
| 2026-05-05 09:14 | 2.00328 | 104.10504 | 14473 ft | 369 kts | 179° |
| 2026-05-05 09:14 | 1.97761 | 104.10504 | 14153 ft | 367 kts | 179° |
| 2026-05-05 09:14 | 1.95261 | 104.10513 | 13804 ft | 366 kts | 179° |
| 2026-05-05 09:14 | 1.92712 | 104.10526 | 13505 ft | 363 kts | 179° |
| 2026-05-05 09:15 | 1.90184 | 104.10539 | 13177 ft | 362 kts | 179° |
| 2026-05-05 09:15 | 1.87670 | 104.10552 | 12859 ft | 360 kts | 179° |
| 2026-05-05 09:15 | 1.85171 | 104.10564 | 12531 ft | 358 kts | 179° |
| 2026-05-05 09:15 | 1.82693 | 104.10576 | 12282 ft | 355 kts | 179° |
| 2026-05-05 09:16 | 1.80219 | 104.10587 | 12039 ft | 355 kts | 179° |
| 2026-05-05 09:16 | 1.77751 | 104.10598 | 11799 ft | 354 kts | 179° |
| 2026-05-05 09:16 | 1.75292 | 104.10609 | 11555 ft | 353 kts | 179° |
| 2026-05-05 09:16 | 1.72840 | 104.10620 | 11318 ft | 351 kts | 179° |
| 2026-05-05 09:17 | 1.70398 | 104.10631 | 11079 ft | 350 kts | 179° |
| 2026-05-05 09:17 | 1.67969 | 104.10642 | 10843 ft | 348 kts | 179° |
| 2026-05-05 09:17 | 1.65551 | 104.10653 | 10616 ft | 347 kts | 179° |
| 2026-05-05 09:17 | 1.63155 | 104.10664 | 10475 ft | 340 kts | 179° |
| 2026-05-05 09:18 | 1.60851 | 104.10769 | 10321 ft | 322 kts | 172° |
| 2026-05-05 09:18 | 1.58727 | 104.11087 | 10130 ft | 305 kts | 171° |
| 2026-05-05 09:18 | 1.56619 | 104.11402 | 9755 ft | 301 kts | 171° |
| 2026-05-05 09:18 | 1.54595 | 104.11699 | 9549 ft | 292 kts | 172° |
| 2026-05-05 09:19 | 1.52589 | 104.11993 | 9428 ft | 294 kts | 172° |
| 2026-05-05 09:19 | 1.50559 | 104.12289 | 9298 ft | 295 kts | 172° |
| 2026-05-05 09:19 | 1.48533 | 104.12586 | 9171 ft | 293 kts | 172° |
| 2026-05-05 09:19 | 1.46513 | 104.12790 | 9043 ft | 292 kts | 181° |
| 2026-05-05 09:20 | 1.44511 | 104.12483 | 8872 ft | 292 kts | 197° |
| 2026-05-05 09:20 | 1.42617 | 104.11726 | 8536 ft | 294 kts | 203° |
| 2026-05-05 09:20 | 1.40736 | 104.10915 | 8161 ft | 293 kts | 203° |
| 2026-05-05 09:20 | 1.38871 | 104.10118 | 7792 ft | 289 kts | 203° |
| 2026-05-05 09:21 | 1.37038 | 104.09338 | 7424 ft | 283 kts | 203° |
| 2026-05-05 09:21 | 1.35243 | 104.08577 | 7076 ft | 277 kts | 203° |
| 2026-05-05 09:21 | 1.33472 | 104.07827 | 6709 ft | 276 kts | 203° |
| 2026-05-05 09:21 | 1.31732 | 104.07090 | 6372 ft | 275 kts | 203° |
| 2026-05-05 09:22 | 1.29968 | 104.06343 | 6003 ft | 274 kts | 203° |
| 2026-05-05 09:22 | 1.28218 | 104.05602 | 5647 ft | 272 kts | 203° |
| 2026-05-05 09:22 | 1.26477 | 104.04865 | 5289 ft | 271 kts | 203° |
| 2026-05-05 09:22 | 1.24745 | 104.04132 | 4944 ft | 270 kts | 203° |
| 2026-05-05 09:23 | 1.23021 | 104.03402 | 4593 ft | 269 kts | 203° |
| 2026-05-05 09:23 | 1.21304 | 104.02675 | 4255 ft | 267 kts | 203° |
| 2026-05-05 09:23 | 1.19591 | 104.01949 | 4072 ft | 270 kts | 203° |
| 2026-05-05 09:23 | 1.17909 | 104.01237 | 4024 ft | 252 kts | 203° |
| 2026-05-05 09:24 | 1.16437 | 104.00416 | 3829 ft | 237 kts | 225° |
| 2026-05-05 09:24 | 1.15625 | 103.99085 | 3680 ft | 219 kts | 258° |
| 2026-05-05 09:24 | 1.15685 | 103.97637 | 3480 ft | 206 kts | 293° |
| 2026-05-05 09:24 | 1.16517 | 103.96517 | 3371 ft | 200 kts | 320° |
| 2026-05-05 09:25 | 1.17636 | 103.95787 | 3324 ft | 185 kts | 334° |
| 2026-05-05 09:25 | 1.18746 | 103.95242 | 3220 ft | 171 kts | 331° |
| 2026-05-05 09:25 | 1.19406 | 103.94847 | 3158 ft | 163 kts | 328° |
| 2026-05-05 09:25 | 1.20336 | 103.94247 | 2998 ft | 157 kts | 332° |
| 2026-05-05 09:26 | 1.21383 | 103.93949 | 2689 ft | 160 kts | 359° |
| 2026-05-05 09:26 | 1.22871 | 103.94205 | 2248 ft | 169 kts | 19° |
| 2026-05-05 09:26 | 1.23627 | 103.94482 | 2001 ft | 173 kts | 22° |
| 2026-05-05 09:26 | 1.24732 | 103.94945 | 1753 ft | 171 kts | 24° |
| 2026-05-05 09:27 | 1.25803 | 103.95405 | 1498 ft | 163 kts | 24° |
| 2026-05-05 09:27 | 1.26813 | 103.95842 | 1286 ft | 157 kts | 24° |
| 2026-05-05 09:27 | 1.27801 | 103.96269 | 1082 ft | 153 kts | 24° |
| 2026-05-05 09:27 | 1.28801 | 103.96701 | 892 ft | 158 kts | 24° |
| 2026-05-05 09:28 | 1.29803 | 103.97134 | 700 ft | 156 kts | 25° |
| 2026-05-05 09:28 | 1.30794 | 103.97561 | 503 ft | 155 kts | 26° |
| 2026-05-05 09:28 | 1.31794 | 103.97994 | 305 ft | 158 kts | 26° |
| 2026-05-05 09:28 | 1.32804 | 103.98430 | 94 ft | 158 kts | 27° |
| 2026-05-05 09:29 | 1.33742 | 103.98844 | 21 ft | 116 kts | 25° |